Time;durP1;ratioP1;P1;durP2;ratioP2;P2;SDS_P1;SDS_P2;PMS_P1;PMS_P2;Temp;Humidity;BMP_temperature;BMP_pressure;BME280_temperature;BME280_humidity;BME280_pressure;Samples;Min_cycle;Max_cycle;Signal;HPM_P1;HPM_P2
2022/09/11 00:00:42;;;;;;;19.90;10.70;;;17.50;82.40;;;;;;5073585;28;20017;-74
2022/09/11 00:03:08;;;;;;;20.55;11.25;;;17.50;82.50;;;;;;5073518;28;20053;-74
2022/09/11 00:05:38;;;;;;;20.60;11.48;;;17.50;82.50;;;;;;5073272;28;20041;-74
2022/09/11 00:08:06;;;;;;;18.13;10.50;;;17.60;82.60;;;;;;5073325;28;20029;-74
2022/09/11 00:10:36;;;;;;;20.58;11.02;;;17.60;82.60;;;;;;5073389;28;20077;-74
2022/09/11 00:13:03;;;;;;;22.05;11.05;;;17.60;82.60;;;;;;5073404;28;20020;-74
2022/09/11 00:15:29;;;;;;;19.55;11.23;;;17.50;82.60;;;;;;5073332;28;20403;-74
2022/09/11 00:17:55;;;;;;;17.27;10.60;;;17.50;82.70;;;;;;5073310;28;20036;-74
2022/09/11 00:20:21;;;;;;;21.08;11.02;;;17.50;82.90;;;;;;5073255;28;20055;-74
2022/09/11 00:22:47;;;;;;;21.90;11.23;;;17.60;82.90;;;;;;5073236;28;20032;-74
2022/09/11 00:25:13;;;;;;;22.95;11.95;;;17.60;83.00;;;;;;5073221;28;20043;-74
2022/09/11 00:27:39;;;;;;;20.08;12.05;;;17.60;82.90;;;;;;5073116;28;20048;-74
2022/09/11 00:30:05;;;;;;;19.88;11.32;;;17.60;83.00;;;;;;5073086;28;20036;-74
2022/09/11 00:32:32;;;;;;;20.65;11.82;;;17.60;83.00;;;;;;5073134;28;20033;-74
2022/09/11 00:34:57;;;;;;;21.05;11.48;;;17.60;83.10;;;;;;5073129;28;20017;-74
2022/09/11 00:37:23;;;;;;;21.08;10.65;;;17.60;82.90;;;;;;5073090;28;20036;-74
2022/09/11 00:39:49;;;;;;;20.67;10.95;;;17.60;82.80;;;;;;5073102;28;20037;-74
2022/09/11 00:42:15;;;;;;;21.27;11.68;;;17.60;82.90;;;;;;5074929;28;20051;-74
2022/09/11 00:44:40;;;;;;;26.98;12.32;;;17.60;83.60;;;;;;5077184;28;20040;-74
2022/09/11 00:47:08;;;;;;;20.73;10.85;;;17.60;82.90;;;;;;5077102;28;20029;-74
2022/09/11 00:49:55;;;;;;;22.48;11.85;;;17.60;82.90;;;;;;5077103;28;20017;-74
2022/09/11 00:52:29;;;;;;;20.25;10.60;;;17.50;82.60;;;;;;5077126;28;20013;-74
2022/09/11 00:55:26;;;;;;;22.10;11.45;;;17.50;82.90;;;;;;5077065;28;20021;-74
2022/09/11 00:58:00;;;;;;;21.55;10.85;;;17.50;82.60;;;;;;5072485;28;20040;-74
2022/09/11 01:00:26;;;;;;;21.70;10.63;;;17.40;82.70;;;;;;5076964;28;20081;-74
2022/09/11 01:02:53;;;;;;;20.40;10.88;;;17.30;83.00;;;;;;5076843;28;20033;-73
2022/09/11 01:05:21;;;;;;;20.60;12.05;;;17.40;83.10;;;;;;5076676;28;20049;-73
2022/09/11 01:07:53;;;;;;;19.95;11.18;;;17.40;82.90;;;;;;5076858;28;20025;-73
2022/09/11 01:10:23;;;;;;;19.80;11.23;;;17.40;82.70;;;;;;5075866;28;20029;-73
2022/09/11 01:13:31;;;;;;;21.33;11.65;;;17.40;82.70;;;;;;5076768;28;20013;-73
2022/09/11 01:16:02;;;;;;;22.42;10.73;;;17.40;82.60;;;;;;5076681;28;20021;-73
2022/09/11 01:18:43;;;;;;;19.40;11.25;;;17.40;82.70;;;;;;5076649;28;20025;-73
2022/09/11 01:21:44;;;;;;;20.20;11.30;;;17.30;82.60;;;;;;5076601;28;20032;-73
2022/09/11 01:24:38;;;;;;;20.73;10.90;;;17.30;82.60;;;;;;5076569;28;20029;-73
2022/09/11 01:27:07;;;;;;;20.95;11.45;;;17.30;82.70;;;;;;5076417;28;20087;-73
2022/09/11 01:29:52;;;;;;;23.60;11.23;;;17.20;82.80;;;;;;5076289;28;20017;-74
2022/09/11 01:32:25;;;;;;;20.27;10.95;;;17.20;82.70;;;;;;5076336;28;20021;-73
2022/09/11 01:35:00;;;;;;;19.77;10.80;;;17.10;82.70;;;;;;5076302;28;20025;-73
2022/09/11 01:37:40;;;;;;;21.30;10.70;;;17.10;82.60;;;;;;5076279;28;20033;-73
2022/09/11 01:40:25;;;;;;;20.52;10.32;;;17.10;82.60;;;;;;5076318;28;20029;-73
2022/09/11 01:42:56;;;;;;;22.77;11.32;;;17.10;82.40;;;;;;5075248;28;20092;-73
2022/09/11 01:45:24;;;;;;;21.92;11.35;;;17.00;82.30;;;;;;5076156;28;20017;-73
2022/09/11 01:47:52;;;;;;;19.38;11.05;;;17.00;82.40;;;;;;5075961;28;20025;-74
2022/09/11 01:50:19;;;;;;;20.63;10.60;;;16.90;82.10;;;;;;5076040;28;20029;-74
2022/09/11 01:52:52;;;;;;;21.42;10.90;;;16.90;82.10;;;;;;5075837;28;20043;-74
2022/09/11 01:55:28;;;;;;;20.88;11.52;;;16.80;82.10;;;;;;5076009;28;20041;-74
2022/09/11 01:58:03;;;;;;;21.35;11.27;;;16.80;82.50;;;;;;5075921;28;20077;-74
2022/09/11 02:00:34;;;;;;;23.48;11.07;;;16.70;82.60;;;;;;5075877;28;20028;-74
2022/09/11 02:03:09;;;;;;;20.08;10.82;;;16.70;82.60;;;;;;5075777;28;20049;-74
2022/09/11 02:05:59;;;;;;;23.92;12.38;;;16.70;82.70;;;;;;5075552;28;20053;-74
2022/09/11 02:08:43;;;;;;;23.27;11.30;;;16.70;82.70;;;;;;5075621;28;20017;-74
2022/09/11 02:11:11;;;;;;;21.77;11.45;;;16.70;82.70;;;;;;5075698;28;20052;-74
2022/09/11 02:13:43;;;;;;;19.70;11.50;;;16.70;82.70;;;;;;5075575;28;20036;-73
2022/09/11 02:16:11;;;;;;;18.23;10.50;;;16.80;82.20;;;;;;5075505;28;20029;-73
2022/09/11 02:18:44;;;;;;;19.08;10.77;;;16.80;81.60;;;;;;5075471;28;20025;-74
2022/09/11 02:21:09;;;;;;;18.77;11.18;;;16.70;81.50;;;;;;5075626;28;20021;-74
2022/09/11 02:23:35;;;;;;;18.63;10.82;;;16.70;81.60;;;;;;5075355;28;20029;-74
2022/09/11 02:26:02;;;;;;;20.42;10.73;;;16.60;81.60;;;;;;5075466;28;20075;-74
2022/09/11 02:28:28;;;;;;;18.98;10.98;;;16.50;81.60;;;;;;5075159;28;20539;-74
2022/09/11 02:30:53;;;;;;;19.13;10.15;;;16.50;81.70;;;;;;5075206;28;20029;-74
2022/09/11 02:33:36;;;;;;;20.30;10.95;;;16.50;81.80;;;;;;5075210;28;20026;-74
2022/09/11 02:36:29;;;;;;;18.95;10.65;;;16.60;81.90;;;;;;5075251;28;20025;-74
2022/09/11 02:39:16;;;;;;;19.20;10.27;;;16.60;81.70;;;;;;5075154;28;20055;-74
2022/09/11 02:41:50;;;;;;;18.02;10.20;;;16.50;81.90;;;;;;5075055;28;20088;-74
2022/09/11 02:44:26;;;;;;;19.73;10.35;;;16.40;82.20;;;;;;5075034;28;20025;-74
2022/09/11 02:47:12;;;;;;;21.25;11.13;;;16.50;82.10;;;;;;5074877;28;20037;-74
2022/09/11 02:50:09;;;;;;;21.02;10.82;;;16.40;81.90;;;;;;5075092;28;20043;-74
2022/09/11 02:52:40;;;;;;;19.67;11.13;;;16.40;81.80;;;;;;5074859;28;20045;-74
2022/09/11 02:55:38;;;;;;;18.70;10.50;;;16.40;81.90;;;;;;5074782;28;20029;-74
2022/09/11 02:58:29;;;;;;;19.70;11.00;;;16.40;81.80;;;;;;5074764;28;20051;-74
2022/09/11 03:00:59;;;;;;;20.85;11.20;;;16.40;81.80;;;;;;5074755;28;20027;-74
2022/09/11 03:03:24;;;;;;;20.05;10.73;;;16.40;81.80;;;;;;5074700;28;20028;-74
2022/09/11 03:05:50;;;;;;;19.65;10.43;;;16.30;82.00;;;;;;5073807;28;20076;-74
2022/09/11 03:08:16;;;;;;;16.75;9.73;;;16.30;82.20;;;;;;5074454;28;20040;-74
2022/09/11 03:10:45;;;;;;;17.65;10.82;;;16.20;82.20;;;;;;5074507;28;20021;-73
2022/09/11 03:13:11;;;;;;;21.55;11.10;;;16.20;82.60;;;;;;5074567;28;20036;-74
2022/09/11 03:15:37;;;;;;;18.30;9.90;;;16.20;83.00;;;;;;5074499;28;20021;-73
2022/09/11 03:18:04;;;;;;;18.70;10.15;;;16.20;82.90;;;;;;5074353;28;20036;-74
2022/09/11 03:20:30;;;;;;;16.63;9.02;;;16.20;82.60;;;;;;5074325;28;20027;-73
2022/09/11 03:22:55;;;;;;;14.85;8.68;;;16.10;82.60;;;;;;5074255;28;20029;-74
2022/09/11 03:25:24;;;;;;;14.63;8.45;;;16.10;82.30;;;;;;5074207;28;20061;-73
2022/09/11 03:27:49;;;;;;;13.30;8.02;;;16.10;82.00;;;;;;5074209;28;20110;-74
2022/09/11 03:30:15;;;;;;;18.17;9.77;;;16.10;81.80;;;;;;5073991;28;20037;-74
2022/09/11 03:32:41;;;;;;;14.98;8.85;;;16.10;81.50;;;;;;5074054;28;20051;-74
2022/09/11 03:35:07;;;;;;;15.02;8.85;;;16.10;81.60;;;;;;5074002;28;20047;-74
2022/09/11 03:37:32;;;;;;;19.35;10.88;;;15.90;82.10;;;;;;5073920;28;20037;-73
2022/09/11 03:40:00;;;;;;;17.90;9.60;;;15.90;82.40;;;;;;5073924;28;20095;-74
2022/09/11 03:42:26;;;;;;;16.27;9.30;;;15.90;82.40;;;;;;5073854;28;20075;-73
2022/09/11 03:44:51;;;;;;;19.13;10.65;;;16.00;82.10;;;;;;5073822;28;20029;-74
2022/09/11 03:47:19;;;;;;;18.80;9.75;;;16.00;82.20;;;;;;5073842;28;20075;-74
2022/09/11 03:49:44;;;;;;;17.17;10.15;;;16.00;82.00;;;;;;5073768;28;20044;-74
2022/09/11 03:52:10;;;;;;;15.77;9.27;;;16.00;81.60;;;;;;5073738;28;20036;-73
2022/09/11 03:54:35;;;;;;;15.60;9.05;;;16.00;81.50;;;;;;5073687;28;20017;-73
2022/09/11 03:57:01;;;;;;;18.48;9.15;;;16.00;81.20;;;;;;5073647;28;20444;-74
2022/09/11 03:59:27;;;;;;;17.67;9.73;;;16.00;81.00;;;;;;5073584;28;20032;-74
2022/09/11 04:01:53;;;;;;;17.75;10.10;;;15.90;81.80;;;;;;5073646;28;20025;-74
2022/09/11 04:04:20;;;;;;;16.45;10.48;;;15.90;81.20;;;;;;5073522;28;20040;-74
2022/09/11 04:06:45;;;;;;;18.48;10.18;;;15.90;81.30;;;;;;5073265;28;20041;-73
2022/09/11 04:09:11;;;;;;;18.30;10.55;;;15.90;81.40;;;;;;5073449;28;20060;-73
2022/09/11 04:11:38;;;;;;;15.35;9.10;;;16.00;81.30;;;;;;5073416;28;20025;-73
2022/09/11 04:14:05;;;;;;;21.58;10.13;;;16.00;81.10;;;;;;5073369;28;20021;-74
2022/09/11 04:16:32;;;;;;;19.83;10.45;;;16.00;80.90;;;;;;5072451;28;20052;-73
2022/09/11 04:18:59;;;;;;;20.63;10.88;;;16.00;80.90;;;;;;5073319;28;20104;-74
2022/09/11 04:21:26;;;;;;;20.92;10.32;;;15.90;80.90;;;;;;5073424;28;20051;-73
2022/09/11 04:23:54;;;;;;;18.20;10.48;;;15.90;81.10;;;;;;5073259;28;20032;-74
2022/09/11 04:26:22;;;;;;;18.75;10.73;;;15.90;81.00;;;;;;5073141;28;20032;-73
2022/09/11 04:28:48;;;;;;;19.95;9.77;;;15.90;80.70;;;;;;5073142;28;20017;-73
2022/09/11 04:31:15;;;;;;;18.73;9.43;;;15.90;80.30;;;;;;5073222;28;20036;-73
2022/09/11 04:33:41;;;;;;;17.55;9.80;;;15.80;80.40;;;;;;5073117;28;20025;-74
2022/09/11 04:36:14;;;;;;;22.35;10.68;;;15.80;80.60;;;;;;5073108;28;20044;-73
2022/09/11 04:38:40;;;;;;;17.35;10.13;;;15.80;80.70;;;;;;5073159;28;20029;-74
2022/09/11 04:41:06;;;;;;;16.73;9.27;;;15.90;81.40;;;;;;5073221;28;20040;-73
2022/09/11 04:43:37;;;;;;;24.33;11.48;;;15.80;80.80;;;;;;5073103;28;20033;-73
2022/09/11 04:46:05;;;;;;;24.38;11.40;;;15.70;81.40;;;;;;5073092;28;20063;-74
2022/09/11 04:48:31;;;;;;;20.77;10.77;;;15.70;81.70;;;;;;5073068;28;20021;-73
2022/09/11 04:51:04;;;;;;;24.30;12.55;;;15.70;82.10;;;;;;5072014;28;20028;-74
2022/09/11 04:53:33;;;;;;;22.35;11.60;;;15.80;82.70;;;;;;5073070;28;20018;-74
2022/09/11 04:56:12;;;;;;;34.88;12.32;;;15.70;82.90;;;;;;5072958;28;20033;-74
2022/09/11 04:58:37;;;;;;;31.67;11.60;;;15.80;83.20;;;;;;5073126;28;20032;-74
2022/09/11 05:01:12;;;;;;;34.00;12.25;;;15.80;83.50;;;;;;5072880;28;20033;-74
2022/09/11 05:03:38;;;;;;;25.17;11.68;;;15.80;83.90;;;;;;5073061;28;20023;-74
2022/09/11 05:06:09;;;;;;;28.80;11.13;;;15.90;84.10;;;;;;5072645;28;20065;-74
2022/09/11 05:08:35;;;;;;;27.08;11.10;;;16.00;84.10;;;;;;5072916;28;20029;-74
2022/09/11 05:11:04;;;;;;;26.98;10.30;;;16.00;84.90;;;;;;5072813;28;20021;-74
2022/09/11 05:13:30;;;;;;;28.10;10.73;;;16.10;84.00;;;;;;5072790;28;20028;-74
2022/09/11 05:16:03;;;;;;;31.40;10.18;;;16.00;84.30;;;;;;5072804;28;20073;-74
2022/09/11 05:18:29;;;;;;;21.33;10.07;;;16.00;84.10;;;;;;5072783;28;20087;-74
2022/09/11 05:21:03;;;;;;;25.20;10.40;;;16.00;84.40;;;;;;5072730;28;20028;-74
2022/09/11 05:23:30;;;;;;;18.23;9.68;;;16.10;84.40;;;;;;5072768;28;20025;-74
2022/09/11 05:26:01;;;;;;;21.50;10.88;;;16.10;84.40;;;;;;5072677;28;20488;-74
2022/09/11 05:28:28;;;;;;;33.42;11.13;;;16.20;84.30;;;;;;5073562;28;20033;-74
2022/09/11 05:30:54;;;;;;;29.42;10.43;;;16.20;84.30;;;;;;5076368;28;20025;-74
2022/09/11 05:33:24;;;;;;;26.23;10.07;;;16.10;84.60;;;;;;5076327;28;20017;-74
2022/09/11 05:35:50;;;;;;;30.70;11.18;;;16.10;84.70;;;;;;5076402;28;20515;-74
2022/09/11 05:38:17;;;;;;;19.95;10.18;;;16.10;84.50;;;;;;5076254;28;20028;-74
2022/09/11 05:40:52;;;;;;;24.70;10.32;;;16.20;84.70;;;;;;5076206;28;20029;-74
2022/09/11 05:43:18;;;;;;;19.98;10.30;;;16.20;84.70;;;;;;5076196;28;20044;-74
2022/09/11 05:45:44;;;;;;;25.55;10.48;;;16.20;84.90;;;;;;5076114;28;20025;-74
2022/09/11 05:48:11;;;;;;;18.35;10.50;;;16.20;84.90;;;;;;5076157;28;20051;-74
2022/09/11 05:50:37;;;;;;;24.98;10.55;;;16.20;84.90;;;;;;5076029;28;20029;-74
2022/09/11 05:53:04;;;;;;;22.08;10.48;;;16.30;84.90;;;;;;5076090;28;20036;-74
2022/09/11 05:55:34;;;;;;;23.95;10.50;;;16.30;84.90;;;;;;5076078;28;20108;-74
2022/09/11 05:58:01;;;;;;;20.13;10.13;;;16.30;84.90;;;;;;5076010;28;20107;-74
2022/09/11 06:00:26;;;;;;;22.70;10.38;;;16.20;85.10;;;;;;5075824;28;20055;-74
2022/09/11 06:02:53;;;;;;;23.80;9.15;;;16.20;85.30;;;;;;5075804;28;20172;-74
2022/09/11 06:05:19;;;;;;;23.52;9.70;;;16.20;85.40;;;;;;5074592;28;20053;-74
2022/09/11 06:07:45;;;;;;;26.88;10.23;;;16.20;85.30;;;;;;5075625;28;20484;-74
2022/09/11 06:10:11;;;;;;;26.48;9.40;;;16.30;85.30;;;;;;5075652;28;20028;-74
2022/09/11 06:12:37;;;;;;;19.63;9.88;;;16.30;85.30;;;;;;5075599;28;20076;-74
2022/09/11 06:15:03;;;;;;;22.67;11.10;;;16.30;85.20;;;;;;5075711;28;20032;-73
2022/09/11 06:17:28;;;;;;;24.17;9.77;;;16.30;85.30;;;;;;5075533;28;20037;-73
2022/09/11 06:19:54;;;;;;;25.05;9.48;;;16.30;85.20;;;;;;5075494;28;20048;-73
2022/09/11 06:22:20;;;;;;;23.00;9.93;;;16.30;85.40;;;;;;5074440;28;20040;-73
2022/09/11 06:24:47;;;;;;;21.10;10.68;;;16.30;85.30;;;;;;5075389;28;20021;-73
2022/09/11 06:27:14;;;;;;;21.35;8.98;;;16.30;85.30;;;;;;5075306;28;20025;-73
2022/09/11 06:29:40;;;;;;;22.20;10.63;;;16.30;85.30;;;;;;5075255;28;20045;-73
2022/09/11 06:32:05;;;;;;;28.98;10.57;;;16.30;85.10;;;;;;5075242;28;20383;-73
2022/09/11 06:34:31;;;;;;;14.63;8.88;;;16.30;85.20;;;;;;5075340;28;20025;-73
2022/09/11 06:36:57;;;;;;;17.75;9.60;;;16.30;85.30;;;;;;5075146;28;20029;-73
2022/09/11 06:39:23;;;;;;;23.17;9.68;;;16.30;85.30;;;;;;5074266;28;20062;-73
2022/09/11 06:41:49;;;;;;;19.88;10.32;;;16.30;85.30;;;;;;5075078;28;20083;-73
2022/09/11 06:44:14;;;;;;;21.08;9.73;;;16.30;85.30;;;;;;5075142;28;20033;-73
2022/09/11 06:46:41;;;;;;;17.08;9.40;;;16.30;85.40;;;;;;5074889;28;20033;-73
2022/09/11 06:49:06;;;;;;;20.02;9.77;;;16.30;85.70;;;;;;5074904;28;20017;-73
2022/09/11 06:51:33;;;;;;;18.65;9.65;;;16.40;85.60;;;;;;5074887;28;20192;-72
2022/09/11 06:54:01;;;;;;;18.80;9.48;;;16.40;85.50;;;;;;5074839;28;20040;-72
2022/09/11 06:56:27;;;;;;;20.70;10.23;;;16.40;85.80;;;;;;5074807;28;20052;-72
2022/09/11 06:58:54;;;;;;;30.50;10.35;;;16.40;85.80;;;;;;5074710;28;20021;-73
2022/09/11 07:01:21;;;;;;;35.10;10.40;;;16.50;85.90;;;;;;5074697;28;20025;-73
2022/09/11 07:03:49;;;;;;;32.13;10.57;;;16.50;85.90;;;;;;5074616;28;20027;-73
2022/09/11 07:06:17;;;;;;;18.15;9.30;;;16.50;85.80;;;;;;5074350;28;20049;-73
2022/09/11 07:08:42;;;;;;;19.90;10.07;;;16.40;85.80;;;;;;5074554;28;20121;-73
2022/09/11 07:11:11;;;;;;;29.48;10.25;;;16.40;86.00;;;;;;5074494;28;20119;-73
2022/09/11 07:13:38;;;;;;;40.03;10.55;;;16.50;86.10;;;;;;5074459;28;20037;-73
2022/09/11 07:16:06;;;;;;;44.15;10.05;;;16.50;86.30;;;;;;5074411;28;20039;-73
2022/09/11 07:18:38;;;;;;;49.33;11.18;;;16.40;86.10;;;;;;5074357;28;20021;-73
2022/09/11 07:21:21;;;;;;;21.77;10.63;;;16.40;86.00;;;;;;5074348;28;20025;-73
2022/09/11 07:23:49;;;;;;;23.27;10.52;;;16.40;86.30;;;;;;5074430;28;20056;-73
2022/09/11 07:26:16;;;;;;;27.50;10.75;;;16.40;86.30;;;;;;5074085;28;20025;-73
2022/09/11 07:28:42;;;;;;;22.75;10.77;;;16.40;86.60;;;;;;5074048;28;20025;-73
2022/09/11 07:31:14;;;;;;;27.88;10.50;;;16.50;87.10;;;;;;5074137;28;20024;-72
2022/09/11 07:33:46;;;;;;;24.83;10.98;;;16.50;86.90;;;;;;5074258;28;20023;-73
2022/09/11 07:36:15;;;;;;;30.65;10.23;;;16.60;86.80;;;;;;5074081;28;20021;-73
2022/09/11 07:38:42;;;;;;;22.10;10.93;;;16.60;86.70;;;;;;5074002;28;20036;-73
2022/09/11 07:41:09;;;;;;;21.17;9.70;;;16.70;86.50;;;;;;5073942;28;20032;-73
2022/09/11 07:43:36;;;;;;;42.25;11.20;;;16.70;87.00;;;;;;5073856;28;20029;-72
2022/09/11 07:46:05;;;;;;;42.25;10.50;;;16.70;86.60;;;;;;5073878;28;20021;-73
2022/09/11 07:48:31;;;;;;;21.55;9.98;;;16.60;86.30;;;;;;5073857;28;20040;-73
2022/09/11 07:50:57;;;;;;;27.17;10.50;;;16.60;86.40;;;;;;5073607;28;20084;-73
2022/09/11 07:53:24;;;;;;;28.95;10.30;;;16.50;86.40;;;;;;5073704;28;20029;-73
2022/09/11 07:55:50;;;;;;;42.65;10.63;;;16.60;86.80;;;;;;5073704;28;20099;-73
2022/09/11 07:58:16;;;;;;;28.83;11.02;;;16.60;87.20;;;;;;5073605;28;20021;-73
2022/09/11 08:00:42;;;;;;;34.65;11.18;;;16.60;87.20;;;;;;5073607;28;20029;-73
2022/09/11 08:03:08;;;;;;;31.20;11.82;;;16.50;87.20;;;;;;5073678;28;20029;-73
2022/09/11 08:05:33;;;;;;;21.88;10.50;;;16.50;87.20;;;;;;5073382;28;20108;-73
2022/09/11 08:07:59;;;;;;;32.33;11.30;;;16.60;87.30;;;;;;5073497;28;20037;-73
2022/09/11 08:10:25;;;;;;;21.95;11.10;;;16.60;87.70;;;;;;5073452;28;20052;-73
2022/09/11 08:12:51;;;;;;;38.33;10.73;;;16.60;87.70;;;;;;5073407;28;20052;-73
2022/09/11 08:15:20;;;;;;;41.95;13.02;;;16.60;88.00;;;;;;5073356;28;20384;-73
2022/09/11 08:17:46;;;;;;;33.08;11.85;;;16.70;88.30;;;;;;5073325;28;20095;-73
2022/09/11 08:20:12;;;;;;;27.70;11.80;;;16.60;88.60;;;;;;5073365;28;20089;-73
2022/09/11 08:22:38;;;;;;;28.27;12.13;;;16.70;88.90;;;;;;5073272;28;20032;-73
2022/09/11 08:25:04;;;;;;;27.95;11.57;;;16.80;89.10;;;;;;5073251;28;20032;-73
2022/09/11 08:27:31;;;;;;;28.10;12.90;;;16.90;89.00;;;;;;5073297;28;20033;-73
2022/09/11 08:29:57;;;;;;;28.67;12.45;;;17.00;88.80;;;;;;5073149;28;20040;-73
2022/09/11 08:32:22;;;;;;;29.17;12.82;;;17.10;88.70;;;;;;5073204;28;20025;-73
2022/09/11 08:34:48;;;;;;;28.88;13.32;;;17.20;88.60;;;;;;5073161;28;20055;-73
2022/09/11 08:37:13;;;;;;;30.50;13.73;;;17.30;88.40;;;;;;5073252;28;20029;-73
2022/09/11 08:39:39;;;;;;;29.45;13.27;;;17.30;88.30;;;;;;5073102;28;20036;-73
2022/09/11 08:42:11;;;;;;;34.63;13.23;;;17.40;88.30;;;;;;5073079;28;20030;-73
2022/09/11 08:44:55;;;;;;;32.92;13.48;;;17.50;88.20;;;;;;5073070;28;20025;-73
2022/09/11 08:47:26;;;;;;;30.90;13.55;;;17.50;87.90;;;;;;5073049;28;20021;-73
2022/09/11 08:49:55;;;;;;;32.35;14.05;;;17.50;87.90;;;;;;5073068;28;20021;-73
2022/09/11 08:52:21;;;;;;;35.53;14.43;;;17.60;88.00;;;;;;5072981;28;20017;-73
2022/09/11 08:54:46;;;;;;;33.72;15.43;;;17.60;88.00;;;;;;5072976;28;20024;-73
2022/09/11 08:57:53;;;;;;;44.55;17.33;;;17.70;88.60;;;;;;5072942;28;20033;-73
2022/09/11 09:00:30;;;;;;;47.17;17.42;;;17.70;88.10;;;;;;5072909;28;20064;-73
2022/09/11 09:03:25;;;;;;;41.70;17.25;;;17.70;88.10;;;;;;5074146;28;20021;-73
2022/09/11 09:06:03;;;;;;;42.53;16.60;;;17.60;87.50;;;;;;5076921;28;20102;-73
2022/09/11 09:08:51;;;;;;;40.50;17.80;;;17.70;87.80;;;;;;5076755;28;20032;-73
2022/09/11 09:11:49;;;;;;;41.95;16.73;;;17.70;87.80;;;;;;5076815;28;20017;-72
2022/09/11 09:14:21;;;;;;;49.78;17.70;;;17.70;87.60;;;;;;5076885;28;20018;-72
2022/09/11 09:17:02;;;;;;;51.50;19.08;;;17.70;87.70;;;;;;5076871;28;20021;-72
2022/09/11 09:19:41;;;;;;;47.65;19.50;;;17.70;87.30;;;;;;5076599;28;20024;-72
2022/09/11 09:22:44;;;;;;;52.42;19.52;;;17.70;87.70;;;;;;5076697;28;20051;-72
2022/09/11 09:25:14;;;;;;;;;;;17.70;87.90;;;;;;5076964;28;20039;-72
2022/09/11 09:27:45;;;;;;;40.75;17.63;;;17.70;87.80;;;;;;5076358;28;19979;-72
2022/09/11 09:30:23;;;;;;;40.92;17.70;;;17.50;87.80;;;;;;5076438;28;20024;-72
2022/09/11 09:32:51;;;;;;;45.25;18.58;;;17.50;88.10;;;;;;5076496;28;20036;-72
2022/09/11 09:35:39;;;;;;;38.78;18.50;;;17.60;88.20;;;;;;5076487;28;20071;-72
2022/09/11 09:38:28;;;;;;;42.22;17.80;;;17.60;88.20;;;;;;5076332;28;20017;-73
2022/09/11 09:41:06;;;;;;;41.42;18.08;;;17.70;88.10;;;;;;5076274;28;20029;-73
2022/09/11 09:43:54;;;;;;;39.83;18.88;;;17.80;88.90;;;;;;5076360;28;20033;-73
2022/09/11 09:46:30;;;;;;;44.33;18.60;;;17.90;87.90;;;;;;5075761;28;20045;-71
2022/09/11 09:48:56;;;;;;;39.22;18.75;;;17.90;87.80;;;;;;5076094;28;20051;-71
2022/09/11 09:51:22;;;;;;;42.00;19.42;;;17.90;88.40;;;;;;5076001;28;20025;-71
2022/09/11 09:53:52;;;;;;;38.60;19.00;;;17.90;87.60;;;;;;5075991;28;20033;-72
2022/09/11 09:56:20;;;;;;;35.10;18.55;;;17.90;87.20;;;;;;5075993;28;20111;-71
2022/09/11 09:58:59;;;;;;;35.03;18.17;;;17.90;87.00;;;;;;5075897;28;20017;-72
2022/09/11 10:01:44;;;;;;;40.05;18.40;;;18.00;86.80;;;;;;5075882;28;20021;-71
2022/09/11 10:04:15;;;;;;;37.65;18.45;;;18.10;86.90;;;;;;5075834;28;20025;-71
2022/09/11 10:06:45;;;;;;;35.47;17.85;;;18.20;87.20;;;;;;5075787;28;20040;-71
2022/09/11 10:09:23;;;;;;;37.67;19.20;;;18.30;87.10;;;;;;5075724;28;20017;-72
2022/09/11 10:12:05;;;;;;;36.00;18.02;;;18.50;87.10;;;;;;5075694;28;20467;-72
2022/09/11 10:14:35;;;;;;;36.00;18.85;;;18.60;86.80;;;;;;5074304;28;20051;-72
2022/09/11 10:17:01;;;;;;;32.67;18.27;;;18.80;86.40;;;;;;5075649;28;20090;-72
2022/09/11 10:19:39;;;;;;;31.48;17.92;;;18.80;84.50;;;;;;5075513;28;20033;-73
2022/09/11 10:22:25;;;;;;;34.58;18.00;;;18.80;83.80;;;;;;5075652;28;20049;-74
2022/09/11 10:25:08;;;;;;;36.20;19.20;;;18.90;85.10;;;;;;5075438;28;20429;-73
2022/09/11 10:27:42;;;;;;;31.83;18.17;;;19.00;83.60;;;;;;5075318;28;20040;-72
2022/09/11 10:30:30;;;;;;;33.58;18.08;;;19.00;84.00;;;;;;5075304;28;20021;-72
2022/09/11 10:32:57;;;;;;;32.10;18.67;;;19.20;83.30;;;;;;5075428;28;20023;-72
2022/09/11 10:35:25;;;;;;;35.10;19.67;;;19.20;82.20;;;;;;5075227;28;20018;-72
2022/09/11 10:38:17;;;;;;;35.35;18.73;;;19.20;82.10;;;;;;5075176;28;20025;-72
2022/09/11 10:41:13;;;;;;;31.20;18.75;;;19.30;82.90;;;;;;5075204;28;20471;-73
2022/09/11 10:44:01;;;;;;;32.70;18.35;;;19.50;83.10;;;;;;5071040;28;20033;-73
2022/09/11 10:46:36;;;;;;;31.67;18.60;;;19.80;82.20;;;;;;5074972;28;20025;-71
2022/09/11 10:49:05;;;;;;;29.65;18.17;;;19.90;80.10;;;;;;5075151;28;20021;-71
2022/09/11 10:51:33;;;;;;;34.72;18.50;;;20.00;79.30;;;;;;5074935;28;20028;-72
2022/09/11 10:54:23;;;;;;;28.77;17.88;;;20.00;80.00;;;;;;5074899;28;20029;-72
2022/09/11 10:56:59;;;;;;;28.67;18.05;;;20.20;80.00;;;;;;5074866;28;20061;-73
2022/09/11 11:00:07;;;;;;;27.92;17.42;;;20.30;79.70;;;;;;5074768;28;20021;-72
2022/09/11 11:02:37;;;;;;;28.83;18.30;;;20.40;78.90;;;;;;5074785;28;20029;-72
2022/09/11 11:05:05;;;;;;;31.63;18.13;;;20.60;79.30;;;;;;5074581;28;20064;-72
2022/09/11 11:07:39;;;;;;;26.77;17.60;;;20.70;78.60;;;;;;5074618;28;20036;-72
2022/09/11 11:10:24;;;;;;;27.13;16.30;;;20.80;78.10;;;;;;5074717;28;20049;-72
2022/09/11 11:13:13;;;;;;;30.42;17.63;;;21.00;77.80;;;;;;5074528;28;20032;-72
2022/09/11 11:15:51;;;;;;;26.30;16.13;;;21.10;77.00;;;;;;5074629;28;20017;-72
2022/09/11 11:18:24;;;;;;;25.75;15.98;;;21.00;74.90;;;;;;5074577;28;20017;-72
2022/09/11 11:21:14;;;;;;;24.58;15.52;;;21.00;73.50;;;;;;5074428;28;20121;-72
2022/09/11 11:24:11;;;;;;;21.40;14.52;;;20.90;73.00;;;;;;5074318;28;20021;-72
2022/09/11 11:27:13;;;;;;;24.35;15.45;;;20.90;74.80;;;;;;5064280;28;20057;-71
2022/09/11 11:30:18;;;;;;;24.33;14.40;;;20.90;73.60;;;;;;5074228;28;20028;-71
2022/09/11 11:33:21;;;;;;;19.55;13.18;;;20.80;73.00;;;;;;5074141;28;20021;-71
2022/09/11 11:36:14;;;;;;;23.67;13.48;;;20.70;71.30;;;;;;5074069;28;20032;-71
2022/09/11 11:39:01;;;;;;;20.90;12.93;;;20.90;73.80;;;;;;5074130;28;20021;-71
2022/09/11 11:41:33;;;;;;;18.70;12.93;;;20.90;72.00;;;;;;5074000;28;20075;-72
2022/09/11 11:44:05;;;;;;;20.42;12.50;;;21.00;73.20;;;;;;5074011;28;20053;-71
2022/09/11 11:46:39;;;;;;;24.90;13.43;;;21.00;71.70;;;;;;5073908;28;20025;-71
2022/09/11 11:49:18;;;;;;;19.35;12.48;;;21.10;71.90;;;;;;5073908;28;20062;-72
2022/09/11 11:51:50;;;;;;;20.77;13.50;;;21.20;71.80;;;;;;5073784;28;20036;-72
2022/09/11 11:54:24;;;;;;;19.15;13.13;;;21.20;71.10;;;;;;5073723;28;20031;-70
2022/09/11 11:56:55;;;;;;;19.60;12.85;;;21.20;72.60;;;;;;5073806;28;20029;-70
2022/09/11 11:59:35;;;;;;;21.08;12.93;;;21.30;72.60;;;;;;5073868;28;20025;-71
2022/09/11 12:02:07;;;;;;;19.95;13.25;;;21.40;72.20;;;;;;5073802;28;20025;-72
2022/09/11 12:04:41;;;;;;;21.58;13.38;;;21.70;71.10;;;;;;5073503;28;20089;-72
2022/09/11 12:07:21;;;;;;;21.67;14.13;;;21.70;71.50;;;;;;5073512;28;20033;-73
2022/09/11 12:09:49;;;;;;;19.35;12.95;;;21.80;71.70;;;;;;5073566;28;20013;-72
2022/09/11 12:12:16;;;;;;;20.63;12.05;;;21.80;70.20;;;;;;5073463;28;20021;-72
2022/09/11 12:15:16;;;;;;;17.52;11.88;;;21.80;68.80;;;;;;5073435;28;20028;-71
2022/09/11 12:17:42;;;;;;;19.38;13.45;;;21.90;68.60;;;;;;5073316;28;20024;-71
2022/09/11 12:20:30;;;;;;;20.33;12.73;;;22.00;69.90;;;;;;5072415;28;20021;-71
2022/09/11 12:22:57;;;;;;;20.92;13.00;;;21.90;70.30;;;;;;5073376;28;20496;-71
2022/09/11 12:25:29;;;;;;;18.02;11.95;;;22.00;70.80;;;;;;5073323;28;20025;-71
2022/09/11 12:28:26;;;;;;;21.42;13.38;;;22.10;69.10;;;;;;5072178;28;20048;-71
2022/09/11 12:30:59;;;;;;;17.02;11.88;;;22.20;67.70;;;;;;5073440;28;20029;-71
2022/09/11 12:33:40;;;;;;;18.45;12.10;;;22.20;68.10;;;;;;5073245;28;20017;-71
2022/09/11 12:36:18;;;;;;;17.33;11.45;;;22.30;67.40;;;;;;5072184;28;20033;-71
2022/09/11 12:38:49;;;;;;;18.77;11.88;;;22.30;66.40;;;;;;5072515;28;20117;-71
2022/09/11 12:41:24;;;;;;;19.90;13.05;;;22.20;66.20;;;;;;5073109;28;20033;-72
2022/09/11 12:43:49;;;;;;;18.38;12.68;;;22.20;67.10;;;;;;5072136;28;20025;-71
2022/09/11 12:46:21;;;;;;;20.08;12.25;;;22.30;67.00;;;;;;5072150;28;20029;-71
2022/09/11 12:49:08;;;;;;;18.50;11.57;;;22.30;66.70;;;;;;5072973;28;20029;-71
2022/09/11 12:51:41;;;;;;;14.50;11.25;;;22.40;67.90;;;;;;5073068;28;20029;-72
2022/09/11 12:54:19;;;;;;;16.48;11.30;;;22.30;66.70;;;;;;5073043;28;20021;-72